Time;durP1;ratioP1;P1;durP2;ratioP2;P2;SDS_P1;SDS_P2;PMS_P1;PMS_P2;Temp;Humidity;BMP_temperature;BMP_pressure;BME280_temperature;BME280_humidity;BME280_pressure;Samples;Min_cycle;Max_cycle;Signal;HPM_P1;HPM_P2
2021/12/13 00:01:20;;;;;;;48.92;24.50;;;;;;;0.44;100.00;100643.43;1741544;82;21038;-79
2021/12/13 00:03:58;;;;;;;53.00;24.07;;;;;;;0.45;100.00;100655.52;1730371;82;21077;-77
2021/12/13 00:06:31;;;;;;;65.90;27.80;;;;;;;0.44;100.00;100651.61;1732426;82;21077;-77
2021/12/13 00:09:04;;;;;;;51.77;25.92;;;;;;;0.42;100.00;100649.02;1732011;82;21459;-78
2021/12/13 00:11:36;;;;;;;52.85;25.52;;;;;;;0.41;100.00;100633.00;1734983;82;21135;-77
2021/12/13 00:14:22;;;;;;;53.38;24.82;;;;;;;0.41;100.00;100647.26;1728835;81;21752;-74
2021/12/13 00:17:12;;;;;;;64.67;28.20;;;;;;;0.42;100.00;100642.54;1734067;82;21065;-76
2021/12/13 00:19:44;;;;;;;57.50;24.75;;;;;;;0.43;100.00;100645.56;1735752;82;21556;-76
2021/12/13 00:22:19;;;;;;;55.63;27.45;;;;;;;0.45;100.00;100655.95;1731206;81;21110;-75
2021/12/13 00:24:47;;;;;;;61.80;25.27;;;;;;;0.42;100.00;100649.02;1732276;82;21782;-75
2021/12/13 00:27:17;;;;;;;59.95;27.48;;;;;;;0.44;100.00;100641.23;1731725;81;21056;-78
2021/12/13 00:30:04;;;;;;;109.40;35.83;;;;;;;0.43;100.00;100640.37;1733194;82;21057;-77
2021/12/13 00:32:48;;;;;;;53.87;26.02;;;;;;;0.46;100.00;100638.25;1738448;82;21032;-76
2021/12/13 00:35:22;;;;;;;55.33;27.02;;;;;;;0.47;100.00;100636.12;1735881;81;21120;-83
2021/12/13 00:37:52;;;;;;;56.25;27.37;;;;;;;0.49;100.00;100639.17;1732435;82;21116;-82
2021/12/13 00:40:27;;;;;;;54.80;26.23;;;;;;;0.51;100.00;100646.54;1730403;82;21632;-78
2021/12/13 00:43:17;;;;;;;54.03;25.17;;;;;;;0.52;100.00;100640.48;1730398;82;21128;-76
2021/12/13 00:46:05;;;;;;;63.45;27.77;;;;;;;0.55;100.00;100635.77;1732541;82;21041;-76
2021/12/13 00:48:35;;;;;;;51.75;23.73;;;;;;;0.57;100.00;100626.29;1734414;82;21061;-76
2021/12/13 00:51:13;;;;;;;54.00;25.48;;;;;;;0.57;100.00;100634.92;1708242;82;21300;-76
2021/12/13 00:53:44;;;;;;;60.05;27.42;;;;;;;0.53;100.00;100634.88;1731136;82;21076;-77
2021/12/13 00:56:58;;;;;;;74.00;31.57;;;;;;;0.52;100.00;100634.01;1724516;82;21041;-76
2021/12/13 00:59:39;;;;;;;57.83;27.65;;;;;;;0.52;100.00;100628.83;1666370;85;21133;-74
2021/12/13 01:02:27;;;;;;;57.67;27.87;;;;;;;0.51;100.00;100629.70;1720601;82;21045;-76
2021/12/13 01:05:02;;;;;;;67.47;29.75;;;;;;;0.51;100.00;100626.23;1734052;82;21489;-77
2021/12/13 01:08:02;;;;;;;68.78;28.30;;;;;;;0.49;100.00;100625.34;1731909;82;21056;-77
2021/12/13 01:10:43;;;;;;;64.60;28.38;;;;;;;0.45;100.00;100623.13;1734895;82;21509;-75
2021/12/13 01:13:16;;;;;;;;;;;;;;;0.43;100.00;100619.65;1735865;82;21624;-77
2021/12/13 01:15:58;;;;;;;68.80;29.35;;;;;;;0.41;100.00;100617.06;1732437;82;20181;-75
2021/12/13 01:19:31;;;;;;;63.03;28.17;;;;;;;0.41;100.00;100617.06;1730189;82;21153;-80
2021/12/13 01:21:37;;;;;;;65.78;28.52;;;;;;;0.43;100.00;100626.56;1700163;82;21600;-80
2021/12/13 01:23:51;;;;;;;64.67;27.90;;;;;;;0.42;100.00;100619.22;1732379;82;21146;-78
2021/12/13 01:26:35;;;;;;;67.55;28.95;;;;;;;0.41;100.00;100613.57;1734152;82;21096;-78
2021/12/13 01:29:01;;;;;;;55.73;25.43;;;;;;;0.39;100.00;100607.09;1731424;82;21562;-78
2021/12/13 01:31:36;;;;;;;53.10;25.05;;;;;;;0.40;100.00;100602.78;1728909;82;21146;-78
2021/12/13 01:34:04;;;;;;;63.13;27.25;;;;;;;0.39;100.00;100595.84;1686180;84;21696;-81
2021/12/13 01:36:42;;;;;;;61.68;28.30;;;;;;;0.41;100.00;100588.95;1685910;84;21074;-81
2021/12/13 01:39:10;;;;;;;66.67;30.08;;;;;;;0.40;100.00;100575.57;1688079;84;21129;-81
2021/12/13 01:41:41;;;;;;;67.37;28.75;;;;;;;0.39;100.00;100578.59;1688106;84;21129;-81
2021/12/13 01:44:13;;;;;;;71.42;31.10;;;;;;;0.39;100.00;100566.04;1686069;84;21564;-79
2021/12/13 01:46:44;;;;;;;66.02;29.50;;;;;;;0.37;100.00;100569.93;1685964;84;21069;-79
2021/12/13 01:49:11;;;;;;;67.42;29.65;;;;;;;0.43;100.00;100570.41;1686468;84;21074;-80
2021/12/13 01:51:38;;;;;;;66.00;29.87;;;;;;;0.43;100.00;100561.34;1688671;84;21113;-79
2021/12/13 01:54:14;;;;;;;66.75;30.60;;;;;;;0.42;100.00;100566.09;1669463;85;21056;-80
2021/12/13 01:56:53;;;;;;;66.20;30.00;;;;;;;0.43;100.00;100565.23;1729208;82;21148;-80
2021/12/13 02:02:17;;;;;;;69.22;31.20;;;;;;;0.41;100.00;100575.59;1735742;82;21028;-78
2021/12/13 02:04:45;;;;;;;66.12;30.82;;;;;;;0.41;100.00;100587.66;1730449;82;21038;-81
2021/12/13 02:07:12;;;;;;;69.42;31.15;;;;;;;0.40;100.00;100582.05;1730123;82;21531;-80
2021/12/13 02:09:44;;;;;;;71.53;31.02;;;;;;;0.40;100.00;100589.82;1735370;82;21206;-80
2021/12/13 02:12:17;;;;;;;71.42;32.98;;;;;;;0.41;100.00;100591.55;1731302;82;21095;-79
2021/12/13 02:16:55;;;;;;;71.65;32.93;;;;;;;0.43;100.00;100587.25;1732756;82;21093;-79
2021/12/13 02:17:22;;;;;;;73.12;31.57;;;;;;;0.41;100.00;100587.66;1738171;82;21233;-78
2021/12/13 02:20:00;;;;;;;65.55;29.82;;;;;;;0.43;100.00;100582.08;1659252;85;21112;-78
2021/12/13 02:22:42;;;;;;;70.80;31.87;;;;;;;0.43;100.00;100578.19;1734009;82;21200;-79
2021/12/13 02:25:26;;;;;;;74.03;33.25;;;;;;;0.42;100.00;100577.76;1737697;82;21520;-78
2021/12/13 02:28:04;;;;;;;79.27;34.40;;;;;;;0.42;100.00;100572.58;1723744;81;21317;-79
2021/12/13 02:30:54;;;;;;;81.60;34.35;;;;;;;0.43;100.00;100571.70;1720055;82;21042;-78
2021/12/13 02:33:34;;;;;;;57.20;22.95;;;;;;;0.43;100.00;100576.89;1715873;82;21066;-78
2021/12/13 02:36:15;;;;;;;80.97;33.75;;;;;;;0.43;100.00;100572.14;1723385;82;21110;-77
2021/12/13 02:38:43;;;;;;;60.70;27.60;;;;;;;0.43;100.00;100578.19;1717045;82;21074;-78
2021/12/13 02:41:10;;;;;;;71.20;33.78;;;;;;;0.42;100.00;100581.64;1730694;82;21085;-78
2021/12/13 02:43:41;;;;;;;75.00;32.20;;;;;;;0.46;100.00;100582.53;1658913;85;21060;-79
2021/12/13 02:46:08;;;;;;;;;;;;;;;0.49;100.00;100578.27;1686549;84;21073;-78
2021/12/13 02:48:52;;;;;;;82.90;34.43;;;;;;;0.48;100.00;100580.83;1678031;84;21843;-81
2021/12/13 02:51:28;;;;;;;77.75;34.70;;;;;;;0.48;100.00;100580.39;1683910;84;21093;-80
2021/12/13 02:54:08;;;;;;;87.62;35.65;;;;;;;0.51;100.00;100576.56;1664014;85;21109;-80
2021/12/13 02:56:40;;;;;;;87.00;36.60;;;;;;;0.49;100.00;100576.97;1667537;83;21091;-80
2021/12/13 02:59:07;;;;;;;77.05;33.80;;;;;;;0.51;100.00;100587.36;1656289;85;21102;-82
2021/12/13 03:01:45;;;;;;;85.53;37.05;;;;;;;0.50;100.00;100585.17;1720267;82;21909;-80
2021/12/13 03:04:18;;;;;;;79.12;37.28;;;;;;;0.53;100.00;100573.56;1720662;82;21081;-80
2021/12/13 03:07:01;;;;;;;80.87;34.80;;;;;;;0.57;100.00;100583.09;1718469;82;21050;-81
2021/12/13 03:09:31;;;;;;;86.50;35.55;;;;;;;0.58;100.00;100570.59;1716882;82;21101;-82
2021/12/13 03:11:58;;;;;;;76.85;34.23;;;;;;;0.62;100.00;100565.89;1720728;82;21064;-78
2021/12/13 03:14:33;;;;;;;59.77;28.35;;;;;;;0.60;100.00;100557.22;1658775;85;21109;-77
2021/12/13 03:17:09;;;;;;;82.15;36.10;;;;;;;0.62;100.00;100559.41;1659035;85;21080;-79
2021/12/13 03:19:41;;;;;;;81.90;37.00;;;;;;;0.63;100.00;100553.36;1631446;85;21121;-80
2021/12/13 03:22:23;;;;;;;87.75;35.95;;;;;;;0.62;100.00;100554.63;1654470;85;21675;-77
2021/12/13 03:25:11;;;;;;;85.95;37.35;;;;;;;0.59;100.00;100550.28;1657445;85;21100;-79
2021/12/13 03:27:56;;;;;;;76.05;33.55;;;;;;;0.58;100.00;100543.38;1619095;86;21107;-78
2021/12/13 03:30:33;;;;;;;92.55;37.05;;;;;;;0.58;100.00;100553.74;1663900;85;21107;-78
2021/12/13 03:33:04;;;;;;;83.82;34.88;;;;;;;0.57;100.00;100545.94;1677362;84;21108;-80
2021/12/13 03:35:36;;;;;;;89.60;35.98;;;;;;;0.58;100.00;100547.27;1680663;84;26657;-75
2021/12/13 03:38:11;;;;;;;85.25;36.98;;;;;;;0.57;100.00;100544.64;1679040;84;21145;-76
2021/12/13 03:40:38;;;;;;;83.58;35.48;;;;;;;0.56;100.00;100547.67;1674153;84;21411;-77
2021/12/13 03:43:14;;;;;;;74.22;32.90;;;;;;;0.56;100.00;100541.63;1688633;84;21066;-77
2021/12/13 03:45:51;;;;;;;96.12;40.55;;;;;;;0.56;100.00;100539.03;1725300;81;21065;-78
2021/12/13 03:48:20;;;;;;;80.83;35.88;;;;;;;0.58;100.00;100538.63;1724663;82;21073;-78
2021/12/13 03:50:50;;;;;;;85.65;35.90;;;;;;;0.58;100.00;100538.20;1732295;82;21025;-77
2021/12/13 03:53:22;;;;;;;94.83;39.20;;;;;;;0.57;100.00;100535.14;1724372;82;21149;-76
2021/12/13 03:55:53;;;;;;;100.20;39.90;;;;;;;0.58;100.00;100538.20;1724733;82;21639;-80
2021/12/13 03:58:21;;;;;;;85.53;37.28;;;;;;;0.56;100.00;100547.67;1729651;82;21073;-79
2021/12/13 04:00:59;;;;;;;101.60;40.67;;;;;;;0.56;100.00;100555.45;1727059;82;21628;-79
2021/12/13 04:03:27;;;;;;;92.17;37.75;;;;;;;0.56;100.00;100554.16;1726902;82;21144;-80
2021/12/13 04:05:54;;;;;;;98.72;39.95;;;;;;;0.54;100.00;100545.92;1718122;82;21479;-78
2021/12/13 04:08:21;;;;;;;90.75;36.88;;;;;;;0.51;100.00;100537.69;1724348;82;21093;-80
2021/12/13 04:10:53;;;;;;;94.55;37.73;;;;;;;0.50;100.00;100528.16;1731464;82;21541;-79
2021/12/13 04:13:24;;;;;;;103.32;39.90;;;;;;;0.50;100.00;100517.80;1728836;82;21085;-78
2021/12/13 04:16:14;;;;;;;94.62;39.60;;;;;;;0.48;100.00;100509.56;1664333;85;21067;-79
2021/12/13 04:21:15;;;;;;;89.52;36.25;;;;;;;0.42;100.00;100522.05;1671296;84;21061;-79
2021/12/13 04:23:45;;;;;;;96.47;38.35;;;;;;;0.40;100.00;100527.20;1674762;84;21073;-79
2021/12/13 04:26:11;;;;;;;90.42;37.13;;;;;;;0.39;100.00;100531.06;1633972;86;21135;-77
2021/12/13 04:28:48;;;;;;;96.40;37.05;;;;;;;0.37;100.00;100527.62;1681312;83;21096;-78
2021/12/13 04:31:19;;;;;;;96.60;38.08;;;;;;;0.37;100.00;100523.30;1659441;85;21159;-78
2021/12/13 04:33:55;;;;;;;85.95;37.55;;;;;;;0.38;100.00;100524.16;1677432;84;26665;-79
2021/12/13 04:36:30;;;;;;;95.85;38.20;;;;;;;0.39;100.00;100531.06;1678819;84;21113;-77
2021/12/13 04:39:18;;;;;;;86.63;36.95;;;;;;;0.42;100.00;100535.00;1677447;84;21054;-76
2021/12/13 04:41:51;;;;;;;98.97;38.38;;;;;;;0.40;100.00;100530.23;1679488;84;21073;-77
2021/12/13 04:44:52;;;;;;;93.27;37.85;;;;;;;0.43;100.00;100535.44;1677809;84;21311;-70
2021/12/13 04:47:23;;;;;;;94.07;36.40;;;;;;;0.46;100.00;100527.71;1679929;84;21140;-68
2021/12/13 04:50:05;;;;;;;102.90;40.40;;;;;;;0.48;100.00;100531.16;1674470;83;21112;-68
2021/12/13 04:52:33;;;;;;;85.55;37.50;;;;;;;0.51;100.00;100540.28;1677746;84;21696;-68
2021/12/13 04:55:00;;;;;;;90.00;37.65;;;;;;;0.54;100.00;100544.19;1680798;84;21033;-67
2021/12/13 04:57:28;;;;;;;82.92;36.08;;;;;;;0.55;100.00;100556.31;1675844;84;21142;-65
2021/12/13 04:59:59;;;;;;;71.25;31.25;;;;;;;0.56;100.00;100552.86;1678649;84;21490;-66
2021/12/13 05:02:25;;;;;;;;;;;;;;;0.54;100.00;100550.67;1683765;84;21073;-67
2021/12/13 05:04:57;;;;;;;88.07;36.53;;;;;;;0.51;100.00;100548.49;1674946;84;20240;-69
2021/12/13 05:07:25;;;;;;;93.95;38.65;;;;;;;0.47;100.00;100554.05;1684495;84;21585;-69
2021/12/13 05:09:52;;;;;;;97.60;39.25;;;;;;;0.50;100.00;100541.55;1659034;85;21107;-67
2021/12/13 05:12:25;;;;;;;101.02;38.38;;;;;;;0.51;100.00;100535.53;1656288;85;21585;-68
2021/12/13 05:14:53;;;;;;;90.43;39.27;;;;;;;0.55;100.00;100538.17;1656761;85;21052;-68
2021/12/13 05:17:25;;;;;;;93.10;39.98;;;;;;;0.56;100.00;100540.33;1658465;85;21127;-69
2021/12/13 05:20:18;;;;;;;91.30;37.48;;;;;;;0.56;100.00;100550.27;1656525;85;21149;-68
2021/12/13 05:22:55;;;;;;;86.97;39.27;;;;;;;0.59;100.00;100555.47;1651772;85;21193;-69
2021/12/13 05:25:47;;;;;;;77.08;33.83;;;;;;;0.60;100.00;100548.16;1673121;85;21109;-69
2021/12/13 05:28:25;;;;;;;84.77;36.03;;;;;;;0.60;100.00;100544.27;1696246;83;21093;-68
2021/12/13 05:31:01;;;;;;;122.67;51.02;;;;;;;0.60;100.00;100541.67;1702250;83;21076;-69
2021/12/13 05:33:31;;;;;;;134.37;57.90;;;;;;;0.59;100.00;100541.22;1677639;84;21616;-68
2021/12/13 05:36:03;;;;;;;129.15;49.88;;;;;;;0.59;100.00;100533.88;1675577;84;21089;-69
2021/12/13 05:38:42;;;;;;;93.52;38.10;;;;;;;0.55;100.00;100539.47;1663974;84;21562;-68
2021/12/13 05:41:23;;;;;;;176.55;68.65;;;;;;;0.54;100.00;100545.48;1681720;84;21706;-69
2021/12/13 05:43:51;;;;;;;;;;;;;;;0.53;100.00;100542.47;1691222;84;21602;-67
2021/12/13 05:46:23;;;;;;;96.92;39.42;;;;;;;0.51;100.00;100542.88;1711955;83;20232;-68
2021/12/13 05:48:54;;;;;;;106.03;41.33;;;;;;;0.48;100.00;100535.05;1698905;83;21125;-66
2021/12/13 05:51:32;;;;;;;108.10;38.73;;;;;;;0.44;100.00;100543.66;1688742;83;21127;-67
2021/12/13 05:54:12;;;;;;;135.55;46.55;;;;;;;0.42;100.00;100541.48;1685429;84;21520;-68
2021/12/13 05:56:49;;;;;;;;;;;;;;;0.40;100.00;100548.37;1694452;83;21643;-66
2021/12/13 05:59:29;;;;;;;100.40;38.85;;;;;;;0.37;100.00;100549.20;1669349;84;20183;-67
2021/12/13 06:02:15;;;;;;;97.57;38.95;;;;;;;0.35;100.00;100555.22;1671135;84;21852;-67
2021/12/13 06:05:03;;;;;;;245.42;96.85;;;;;;;0.31;100.00;100565.10;1689913;83;21020;-66
2021/12/13 06:07:33;;;;;;;89.37;35.63;;;;;;;0.32;100.00;100559.05;1698950;83;21067;-66
2021/12/13 06:10:09;;;;;;;89.28;37.23;;;;;;;0.35;100.00;100575.95;1689686;83;21159;-66
2021/12/13 06:12:57;;;;;;;80.22;34.50;;;;;;;0.39;100.00;100581.19;1681661;84;21142;-67
2021/12/13 06:15:28;;;;;;;93.07;38.48;;;;;;;0.39;100.00;100586.37;1685703;84;21140;-67
2021/12/13 06:18:09;;;;;;;96.63;39.83;;;;;;;0.49;100.00;100586.04;1673138;84;25684;-64
2021/12/13 06:21:14;;;;;;;92.00;39.40;;;;;;;0.49;100.00;100586.04;1676279;84;21686;-68
2021/12/13 06:23:44;;;;;;;75.75;33.78;;;;;;;0.50;100.00;100581.29;1672836;83;21314;-68
2021/12/13 06:26:12;;;;;;;90.22;40.05;;;;;;;0.54;100.00;100581.77;1639673;84;21107;-68
2021/12/13 06:28:45;;;;;;;82.72;36.15;;;;;;;0.70;100.00;100584.53;1654115;83;21281;-68
2021/12/13 06:31:15;;;;;;;81.67;34.85;;;;;;;0.62;100.00;100587.92;1717008;82;21416;-68
2021/12/13 06:33:59;;;;;;;86.30;36.80;;;;;;;0.58;100.00;100587.44;1703775;82;21769;-68
2021/12/13 06:36:37;;;;;;;85.57;36.60;;;;;;;0.57;100.00;100586.98;1708928;81;21034;-69
2021/12/13 06:39:10;;;;;;;86.85;36.77;;;;;;;0.53;100.00;100586.52;1709217;82;21089;-70
2021/12/13 06:41:42;;;;;;;79.90;34.35;;;;;;;0.51;100.00;100589.95;1711950;82;21164;-68
2021/12/13 06:44:26;;;;;;;64.90;27.60;;;;;;;0.48;100.00;100589.47;1712108;82;21042;-68
2021/12/13 06:47:12;;;;;;;79.72;35.20;;;;;;;0.46;100.00;100581.23;1715067;82;21073;-70
2021/12/13 06:49:44;;;;;;;81.87;34.73;;;;;;;0.42;100.00;100586.83;1706963;82;21047;-67
2021/12/13 06:52:19;;;;;;;77.47;33.20;;;;;;;0.41;100.00;100592.44;1705407;82;21073;-69
2021/12/13 06:55:02;;;;;;;75.37;32.25;;;;;;;0.38;100.00;100587.20;1717427;81;21212;-71
2021/12/13 06:57:40;;;;;;;75.37;33.60;;;;;;;0.35;100.00;100575.95;1715161;82;21065;-66
2021/12/13 07:00:15;;;;;;;67.45;29.37;;;;;;;0.32;100.00;100578.48;1717672;82;21105;-67
2021/12/13 07:02:53;;;;;;;74.53;33.40;;;;;;;0.35;100.00;100585.02;1707837;82;21684;-68
2021/12/13 07:05:33;;;;;;;77.90;32.70;;;;;;;0.34;100.00;100585.85;1710604;82;22216;-67
2021/12/13 07:08:30;;;;;;;58.13;27.85;;;;;;;0.35;100.00;100579.84;1712553;82;21596;-68
2021/12/13 07:11:15;;;;;;;65.20;30.40;;;;;;;0.39;100.00;100573.81;1714248;82;21081;-67
2021/12/13 07:14:03;;;;;;;64.90;29.67;;;;;;;0.41;100.00;100570.81;1708973;82;21600;-69
2021/12/13 07:16:33;;;;;;;71.82;32.40;;;;;;;0.39;100.00;100577.30;1714149;82;21053;-67
2021/12/13 07:19:18;;;;;;;;;;;;;;;0.38;100.00;100572.95;1659913;85;21088;-67
2021/12/13 07:21:56;;;;;;;88.42;35.40;;;;;;;0.37;100.00;100571.66;1677092;84;21172;-68
2021/12/13 07:24:42;;;;;;;61.05;27.25;;;;;;;0.38;100.00;100570.80;1717601;82;21094;-68
2021/12/13 07:27:23;;;;;;;63.00;26.25;;;;;;;0.37;100.00;100571.66;1721700;82;21081;-68
2021/12/13 07:29:56;;;;;;;60.12;28.17;;;;;;;0.37;100.00;100569.07;1732028;81;21536;-67
2021/12/13 07:32:33;;;;;;;64.85;29.07;;;;;;;0.39;100.00;100567.34;1728202;82;21049;-67
2021/12/13 07:35:10;;;;;;;58.35;26.45;;;;;;;0.39;100.00;100567.34;1731190;81;21075;-66
2021/12/13 07:38:03;;;;;;;101.07;36.48;;;;;;;0.38;100.00;100558.70;1730710;82;21093;-69
2021/12/13 07:40:41;;;;;;;99.05;35.08;;;;;;;0.39;100.00;100559.56;1736541;82;21092;-67
2021/12/13 07:43:26;;;;;;;76.80;30.80;;;;;;;0.38;100.00;100547.48;1734589;82;21080;-69
2021/12/13 07:46:14;;;;;;;79.40;33.13;;;;;;;0.39;100.00;100559.56;1731336;82;21147;-69
2021/12/13 07:48:46;;;;;;;108.47;39.38;;;;;;;0.40;100.00;100539.30;1722628;82;21046;-73
2021/12/13 07:51:20;;;;;;;271.70;99.32;;;;;;;0.39;100.00;100551.79;1730010;82;22194;-71
2021/12/13 07:53:58;;;;;;;75.78;32.88;;;;;;;0.36;100.00;100546.16;1707727;82;21109;-68
2021/12/13 07:56:45;;;;;;;70.42;29.40;;;;;;;0.33;100.00;100545.27;1734072;82;21048;-67
2021/12/13 07:59:20;;;;;;;78.07;32.48;;;;;;;0.31;100.00;100538.77;1730511;82;21028;-72
2021/12/13 08:02:11;;;;;;;100.78;36.53;;;;;;;0.30;100.00;100542.62;1731257;82;22146;-70
2021/12/13 08:04:49;;;;;;;68.10;29.75;;;;;;;0.29;100.00;100545.64;1727805;82;21010;-70
2021/12/13 08:07:20;;;;;;;72.72;30.48;;;;;;;0.34;100.00;100554.33;1731320;82;21089;-70
2021/12/13 08:09:55;;;;;;;65.80;27.90;;;;;;;0.37;100.00;100559.57;1733558;82;21049;-66
2021/12/13 08:12:30;;;;;;;52.70;26.52;;;;;;;0.47;100.00;100569.60;1730691;82;21029;-70
2021/12/13 08:15:20;;;;;;;52.40;24.60;;;;;;;0.46;100.00;100568.28;1729468;82;21161;-70
2021/12/13 08:17:57;;;;;;;68.42;28.38;;;;;;;0.45;100.00;100571.30;1729527;82;21569;-71
2021/12/13 08:20:43;;;;;;;65.37;28.05;;;;;;;0.57;100.00;100580.50;1731211;82;21644;-70
2021/12/13 08:23:23;;;;;;;64.32;27.90;;;;;;;0.60;100.00;100580.55;1727493;82;21040;-69
2021/12/13 08:25:54;;;;;;;51.37;24.00;;;;;;;0.57;100.00;100572.72;1732379;82;21213;-68
2021/12/13 08:28:25;;;;;;;54.60;25.43;;;;;;;0.56;100.00;100578.77;1724538;82;21106;-67
2021/12/13 08:30:54;;;;;;;49.58;24.32;;;;;;;0.57;100.00;100575.31;1721704;82;21063;-68
2021/12/13 08:33:31;;;;;;;52.73;26.02;;;;;;;0.58;100.00;100575.78;1732064;82;21033;-67
2021/12/13 08:36:14;;;;;;;51.42;24.55;;;;;;;0.58;100.00;100580.09;1661366;85;21579;-68
2021/12/13 08:38:50;;;;;;;51.35;24.57;;;;;;;0.60;100.00;100577.09;1726844;82;21987;-68
2021/12/13 08:41:27;;;;;;;55.20;25.88;;;;;;;0.70;100.00;100587.13;1730719;82;21148;-68
2021/12/13 08:44:05;;;;;;;64.22;25.85;;;;;;;0.71;100.00;100574.59;1729003;82;21072;-68
2021/12/13 08:46:49;;;;;;;58.08;24.82;;;;;;;0.73;100.00;100588.45;1705296;82;21072;-69
2021/12/13 08:49:37;;;;;;;66.12;27.32;;;;;;;0.75;100.00;100593.23;1730330;82;21063;-68
2021/12/13 08:52:30;;;;;;;74.27;28.90;;;;;;;0.68;100.00;100590.99;1721139;82;21068;-66
2021/12/13 08:55:20;;;;;;;54.18;24.75;;;;;;;0.63;100.00;100588.35;1730149;82;21755;-68
2021/12/13 08:58:10;;;;;;;53.35;23.60;;;;;;;0.69;100.00;100590.16;1731585;82;21060;-68
2021/12/13 09:01:07;;;;;;;54.55;24.92;;;;;;;0.78;100.00;100580.28;1734071;82;21034;-68
2021/12/13 09:03:47;;;;;;;41.63;20.55;;;;;;;0.80;100.00;100575.98;1730537;82;21629;-69
2021/12/13 09:06:22;;;;;;;51.63;23.25;;;;;;;0.78;100.00;100565.63;1728473;82;21096;-67
2021/12/13 09:08:55;;;;;;;58.58;25.62;;;;;;;0.87;100.00;100560.06;1731870;82;21139;-66
2021/12/13 09:11:44;;;;;;;52.35;24.72;;;;;;;0.91;100.00;100560.11;1731073;80;21572;-68
2021/12/13 09:14:34;;;;;;;59.15;26.42;;;;;;;0.86;100.00;100559.63;1732165;80;21120;-67
2021/12/13 09:17:31;;;;;;;56.50;25.80;;;;;;;0.81;100.00;100559.59;1732039;82;21120;-67
2021/12/13 09:20:21;;;;;;;65.90;29.63;;;;;;;0.81;100.00;100547.92;1656901;85;21037;-68
2021/12/13 09:22:55;;;;;;;72.57;30.07;;;;;;;0.77;100.00;100551.34;1734581;82;21962;-67
2021/12/13 09:25:45;;;;;;;70.57;31.42;;;;;;;0.73;100.00;100546.53;1734202;82;22169;-67
2021/12/13 09:28:29;;;;;;;63.40;28.73;;;;;;;0.72;100.00;100543.52;1731388;82;21080;-67
2021/12/13 09:31:12;;;;;;;64.58;27.50;;;;;;;0.66;100.00;100555.11;1732691;80;21037;-68
2021/12/13 09:33:43;;;;;;;67.47;28.25;;;;;;;0.63;100.00;100549.91;1734244;82;21104;-68
2021/12/13 09:36:17;;;;;;;74.35;31.55;;;;;;;0.62;100.00;100560.70;1731070;82;21497;-66
2021/12/13 09:39:07;;;;;;;68.05;30.97;;;;;;;0.58;100.00;100556.34;1732043;82;21614;-68
2021/12/13 09:41:53;;;;;;;68.33;29.50;;;;;;;0.56;100.00;100559.34;1733928;82;21605;-69
2021/12/13 09:44:39;;;;;;;59.20;25.12;;;;;;;0.55;100.00;100564.09;1680389;85;21064;-69
2021/12/13 09:47:14;;;;;;;103.75;38.13;;;;;;;0.56;100.00;100559.77;1731462;82;21564;-68
2021/12/13 09:49:47;;;;;;;65.60;29.07;;;;;;;0.54;100.00;100553.27;1728704;82;21133;-67
2021/12/13 09:52:23;;;;;;;70.85;30.02;;;;;;;0.65;100.00;100552.52;1732771;82;21102;-66
2021/12/13 09:55:18;;;;;;;65.70;26.55;;;;;;;0.72;100.00;100540.92;1720808;82;21647;-69
2021/12/13 09:58:01;;;;;;;81.75;30.75;;;;;;;0.77;100.00;100544.86;1713837;82;21033;-67
2021/12/13 10:01:00;;;;;;;129.65;37.95;;;;;;;0.75;100.00;100535.75;1704151;82;21627;-68
2021/12/13 10:03:47;;;;;;;61.95;25.88;;;;;;;0.80;100.00;100531.47;1731802;82;21985;-68
2021/12/13 10:06:15;;;;;;;90.83;31.68;;;;;;;0.82;100.00;100536.69;1730677;80;21054;-69
2021/12/13 10:08:53;;;;;;;75.85;30.82;;;;;;;0.84;100.00;100559.17;1731154;82;21061;-68
2021/12/13 10:11:34;;;;;;;116.90;37.45;;;;;;;0.96;100.00;100550.64;1721424;82;21080;-69
2021/12/13 10:14:01;;;;;;;63.80;27.87;;;;;;;0.93;100.00;100557.10;1727657;82;21065;-69
2021/12/13 10:16:33;;;;;;;73.65;29.80;;;;;;;0.88;100.00;100554.91;1730092;82;21535;-69
2021/12/13 10:19:00;;;;;;;76.42;32.28;;;;;;;0.82;100.00;100537.98;1730141;82;21115;-69
2021/12/13 10:21:31;;;;;;;78.78;32.95;;;;;;;0.79;100.00;100531.48;1727470;82;21061;-68
2021/12/13 10:24:10;;;;;;;72.92;31.37;;;;;;;0.77;100.00;100542.27;1732699;82;21521;-69
2021/12/13 10:26:39;;;;;;;92.12;32.60;;;;;;;0.79;100.00;100545.74;1727808;82;21073;-68
2021/12/13 10:29:09;;;;;;;87.55;32.38;;;;;;;0.82;100.00;100547.92;1726151;82;21207;-68
2021/12/13 10:31:40;;;;;;;65.85;26.25;;;;;;;0.77;100.00;100550.04;1697042;82;21589;-69
2021/12/13 10:34:12;;;;;;;110.10;34.78;;;;;;;0.72;100.00;100537.03;1725310;82;21710;-69
2021/12/13 10:36:40;;;;;;;;;;;;;;;0.68;100.00;100546.06;1730411;82;21101;-69
2021/12/13 10:39:17;;;;;;;128.65;36.75;;;;;;;0.72;100.00;100555.61;1730574;81;20492;-67
2021/12/13 10:41:47;;;;;;;166.53;46.65;;;;;;;0.71;100.00;100553.86;1727393;82;21145;-68
2021/12/13 10:44:25;;;;;;;83.78;30.68;;;;;;;0.75;100.00;100553.04;1724214;82;21015;-68
2021/12/13 10:46:48;;;;;;;76.57;29.77;;;;;;;0.70;100.00;100547.81;1727290;82;21081;-69
2021/12/13 10:49:20;;;;;;;63.90;29.10;;;;;;;0.69;100.00;100540.01;1727386;82;21085;-70
2021/12/13 10:51:57;;;;;;;63.42;27.80;;;;;;;0.71;100.00;100533.98;1723583;82;21093;-68
2021/12/13 10:54:30;;;;;;;95.72;30.95;;;;;;;0.78;100.00;100537.50;1729157;82;23052;-68
2021/12/13 10:57:02;;;;;;;86.55;31.23;;;;;;;0.79;100.00;100545.30;1724376;82;21597;-67
2021/12/13 10:59:31;;;;;;;85.15;31.97;;;;;;;0.77;100.00;100550.04;1721470;82;21631;-69
2021/12/13 11:02:02;;;;;;;80.20;32.50;;;;;;;0.71;100.00;100547.38;1723154;82;21041;-68
2021/12/13 11:04:36;;;;;;;68.42;29.15;;;;;;;0.70;100.00;100541.77;1722261;82;21112;-69
2021/12/13 11:07:05;;;;;;;60.73;25.95;;;;;;;0.79;100.00;100542.72;1724866;82;21103;-67
2021/12/13 11:09:31;;;;;;;94.32;38.08;;;;;;;0.86;100.00;100533.27;1733583;82;22292;-69
2021/12/13 11:12:04;;;;;;;68.57;30.05;;;;;;;0.86;100.00;100541.05;1683250;84;21112;-68
2021/12/13 11:14:33;;;;;;;55.43;26.33;;;;;;;0.91;100.00;100532.88;1726130;82;21616;-68
2021/12/13 11:17:05;;;;;;;63.83;29.32;;;;;;;0.97;100.00;100526.45;1727390;82;21096;-67
2021/12/13 11:19:34;;;;;;;64.00;29.25;;;;;;;0.97;100.00;100521.27;1724649;82;21122;-68
2021/12/13 11:22:06;;;;;;;62.40;27.13;;;;;;;0.98;100.00;100519.10;1720943;82;21045;-70
2021/12/13 11:24:39;;;;;;;52.33;24.77;;;;;;;1.01;100.00;100524.34;1725680;82;21040;-71
2021/12/13 11:27:10;;;;;;;53.52;24.10;;;;;;;1.02;100.00;100519.58;1727738;82;21001;-71
2021/12/13 11:29:39;;;;;;;73.97;31.27;;;;;;;0.94;100.00;100513.44;1723246;82;21573;-72
2021/12/13 11:32:39;;;;;;;59.48;26.70;;;;;;;0.88;100.00;100517.30;1661131;85;21097;-72
2021/12/13 11:35:35;;;;;;;60.10;25.57;;;;;;;0.86;100.00;100512.53;1679938;84;21556;-72
2021/12/13 11:38:39;;;;;;;51.42;24.02;;;;;;;0.82;100.00;100503.84;1680848;84;21390;-72
2021/12/13 11:44:51;;;;;;;51.73;26.33;;;;;;;0.95;100.00;100503.53;1803107;79;22581;-73
2021/12/13 11:47:53;;;;;;;57.23;26.30;;;;;;;0.95;100.00;100503.53;1760013;80;21002;-73
2021/12/13 11:51:11;;;;;;;60.85;27.27;;;;;;;0.96;100.00;100509.14;1754525;80;21158;-73
2021/12/13 11:54:20;;;;;;;55.45;26.87;;;;;;;0.92;100.00;100507.41;1758886;80;21056;-73
2021/12/13 11:57:25;;;;;;;53.80;26.95;;;;;;;0.87;100.00;100506.47;1770344;80;21072;-73
2021/12/13 12:00:34;;;;;;;53.45;26.20;;;;;;;0.82;100.00;100501.68;1752060;80;21073;-72
2021/12/13 12:03:44;;;;;;;49.00;24.20;;;;;;;0.81;100.00;100519.41;1750893;80;21033;-71
2021/12/13 12:06:49;;;;;;;45.58;23.22;;;;;;;0.81;100.00;100514.22;1760770;80;21118;-72